Terminal Aerodrome Forecast
Issued by NWS Twin Cities, MN

Home | Current Version | Previous Version | Text Only | Print | Product List | Glossary On
Versions: 1 2 3 4 5 6 7 8 9 10 11 12 13 14 15 16
763
FTUS43 KMPX 151727
TAFEAU
TAF
KEAU 151727Z 1518/1618 12006KT P6SM SCT250
     FM160600 11003KT P6SM OVC100
     FM161200 11004KT 6SM BR OVC015
     FM161400 12008KT 6SM SHRA BR OVC015=

USA.gov is the U.S. government's official web portal to all federal, state and local government web resources and services.